sensor_id;sensor_type;location;lat;lon;timestamp;pressure;altitude;pressure_sealevel;temperature;humidity
55010;BME280;40903;51.638;7.528;2023-04-27T00:01:22;101435.78;;;4.27;94.82
55010;BME280;40903;51.638;7.528;2023-04-27T00:03:47;101437.78;;;4.20;95.45
55010;BME280;40903;51.638;7.528;2023-04-27T00:06:12;101430.84;;;4.13;96.07
55010;BME280;40903;51.638;7.528;2023-04-27T00:08:38;101437.50;;;4.10;96.35
55010;BME280;40903;51.638;7.528;2023-04-27T00:11:03;101434.69;;;4.05;96.74
55010;BME280;40903;51.638;7.528;2023-04-27T00:13:28;101434.31;;;4.02;96.93
55010;BME280;40903;51.638;7.528;2023-04-27T00:15:54;101436.44;;;4.00;97.29
55010;BME280;40903;51.638;7.528;2023-04-27T00:18:19;101427.16;;;3.96;97.40
55010;BME280;40903;51.638;7.528;2023-04-27T00:20:44;101434.88;;;3.92;97.66
55010;BME280;40903;51.638;7.528;2023-04-27T00:23:10;101433.69;;;3.88;97.69
55010;BME280;40903;51.638;7.528;2023-04-27T00:25:35;101432.53;;;3.84;98.01
55010;BME280;40903;51.638;7.528;2023-04-27T00:28:00;101439.41;;;3.80;97.98
55010;BME280;40903;51.638;7.528;2023-04-27T00:30:26;101441.97;;;3.76;97.75
55010;BME280;40903;51.638;7.528;2023-04-27T00:32:51;101441.84;;;3.71;98.11
55010;BME280;40903;51.638;7.528;2023-04-27T00:35:16;101441.84;;;3.71;98.57
55010;BME280;40903;51.638;7.528;2023-04-27T00:37:42;101437.94;;;3.67;99.40
55010;BME280;40903;51.638;7.528;2023-04-27T00:40:07;101440.03;;;3.65;99.68
55010;BME280;40903;51.638;7.528;2023-04-27T00:42:33;101440.50;;;3.62;100.00
55010;BME280;40903;51.638;7.528;2023-04-27T00:44:58;101450.09;;;3.58;100.00
55010;BME280;40903;51.638;7.528;2023-04-27T00:47:23;101448.91;;;3.54;100.00
55010;BME280;40903;51.638;7.528;2023-04-27T00:49:49;101443.94;;;3.51;100.00
55010;BME280;40903;51.638;7.528;2023-04-27T00:52:14;101447.09;;;3.48;100.00
55010;BME280;40903;51.638;7.528;2023-04-27T00:54:39;101446.97;;;3.43;100.00
55010;BME280;40903;51.638;7.528;2023-04-27T00:57:05;101452.19;;;3.38;100.00
55010;BME280;40903;51.638;7.528;2023-04-27T00:59:30;101454.53;;;3.34;100.00
55010;BME280;40903;51.638;7.528;2023-04-27T01:01:55;101462.47;;;3.29;100.00
55010;BME280;40903;51.638;7.528;2023-04-27T01:04:21;101459.41;;;3.26;100.00
55010;BME280;40903;51.638;7.528;2023-04-27T01:06:47;101462.31;;;3.24;100.00
55010;BME280;40903;51.638;7.528;2023-04-27T01:09:12;101466.28;;;3.22;100.00
55010;BME280;40903;51.638;7.528;2023-04-27T01:11:37;101461.94;;;3.21;100.00
55010;BME280;40903;51.638;7.528;2023-04-27T01:14:06;101463.81;;;3.20;100.00
55010;BME280;40903;51.638;7.528;2023-04-27T01:16:31;101463.81;;;3.20;100.00
55010;BME280;40903;51.638;7.528;2023-04-27T01:18:57;101467.56;;;3.19;100.00
55010;BME280;40903;51.638;7.528;2023-04-27T01:21:22;101467.56;;;3.19;100.00
55010;BME280;40903;51.638;7.528;2023-04-27T01:23:47;101476.00;;;3.23;100.00
55010;BME280;40903;51.638;7.528;2023-04-27T01:26:13;101482.63;;;3.27;100.00
55010;BME280;40903;51.638;7.528;2023-04-27T01:28:40;101480.50;;;3.29;100.00
55010;BME280;40903;51.638;7.528;2023-04-27T01:31:05;101483.59;;;3.32;100.00
55010;BME280;40903;51.638;7.528;2023-04-27T01:33:30;101483.94;;;3.36;100.00
55010;BME280;40903;51.638;7.528;2023-04-27T01:35:56;101482.47;;;3.40;100.00
55010;BME280;40903;51.638;7.528;2023-04-27T01:38:21;101480.38;;;3.42;100.00
55010;BME280;40903;51.638;7.528;2023-04-27T01:40:48;101479.69;;;3.46;100.00
55010;BME280;40903;51.638;7.528;2023-04-27T01:43:13;101486.50;;;3.49;100.00
55010;BME280;40903;51.638;7.528;2023-04-27T01:45:38;101492.25;;;3.52;100.00
55010;BME280;40903;51.638;7.528;2023-04-27T01:48:03;101484.78;;;3.54;100.00
55010;BME280;40903;51.638;7.528;2023-04-27T01:50:28;101482.47;;;3.58;100.00
55010;BME280;40903;51.638;7.528;2023-04-27T01:52:54;101476.59;;;3.61;100.00
55010;BME280;40903;51.638;7.528;2023-04-27T01:55:19;101487.19;;;3.62;100.00
55010;BME280;40903;51.638;7.528;2023-04-27T01:57:44;101486.94;;;3.64;100.00
55010;BME280;40903;51.638;7.528;2023-04-27T02:00:10;101486.72;;;3.65;100.00
55010;BME280;40903;51.638;7.528;2023-04-27T02:02:36;101485.66;;;3.66;100.00
55010;BME280;40903;51.638;7.528;2023-04-27T02:05:01;101489.53;;;3.70;100.00
55010;BME280;40903;51.638;7.528;2023-04-27T02:07:26;101491.78;;;3.73;100.00
55010;BME280;40903;51.638;7.528;2023-04-27T02:09:52;101491.34;;;3.76;100.00
55010;BME280;40903;51.638;7.528;2023-04-27T02:12:17;101501.91;;;3.78;100.00
55010;BME280;40903;51.638;7.528;2023-04-27T02:14:42;101500.38;;;3.81;100.00
55010;BME280;40903;51.638;7.528;2023-04-27T02:17:07;101499.72;;;3.86;100.00
55010;BME280;40903;51.638;7.528;2023-04-27T02:19:32;101501.16;;;3.88;100.00
55010;BME280;40903;51.638;7.528;2023-04-27T02:21:58;101493.66;;;3.90;100.00
55010;BME280;40903;51.638;7.528;2023-04-27T02:24:23;101497.78;;;3.93;100.00
55010;BME280;40903;51.638;7.528;2023-04-27T02:26:48;101497.31;;;3.96;100.00
55010;BME280;40903;51.638;7.528;2023-04-27T02:29:13;101493.94;;;4.00;100.00
55010;BME280;40903;51.638;7.528;2023-04-27T02:31:39;101492.03;;;4.01;100.00
55010;BME280;40903;51.638;7.528;2023-04-27T02:34:04;101490.19;;;4.01;100.00
55010;BME280;40903;51.638;7.528;2023-04-27T02:36:29;101492.03;;;4.01;100.00
55010;BME280;40903;51.638;7.528;2023-04-27T02:38:55;101491.44;;;3.99;100.00
55010;BME280;40903;51.638;7.528;2023-04-27T02:41:21;101492.28;;;3.99;100.00
55010;BME280;40903;51.638;7.528;2023-04-27T02:43:46;101490.84;;;3.97;100.00
55010;BME280;40903;51.638;7.528;2023-04-27T02:46:11;101493.19;;;3.93;100.00
55010;BME280;40903;51.638;7.528;2023-04-27T02:48:37;101482.84;;;3.90;100.00
55010;BME280;40903;51.638;7.528;2023-04-27T02:51:03;101483.31;;;3.87;100.00
55010;BME280;40903;51.638;7.528;2023-04-27T02:53:28;101485.63;;;3.84;100.00
55010;BME280;40903;51.638;7.528;2023-04-27T02:55:54;101481.75;;;3.80;100.00
55010;BME280;40903;51.638;7.528;2023-04-27T02:58:19;101477.03;;;3.76;100.00
55010;BME280;40903;51.638;7.528;2023-04-27T03:00:44;101480.19;;;3.73;100.00
55010;BME280;40903;51.638;7.528;2023-04-27T03:03:09;101484.63;;;3.67;100.00
55010;BME280;40903;51.638;7.528;2023-04-27T03:05:35;101483.66;;;3.62;100.00
55010;BME280;40903;51.638;7.528;2023-04-27T03:08:01;101478.13;;;3.57;100.00
55010;BME280;40903;51.638;7.528;2023-04-27T03:10:26;101479.00;;;3.51;100.00
55010;BME280;40903;51.638;7.528;2023-04-27T03:12:51;101483.41;;;3.45;100.00
55010;BME280;40903;51.638;7.528;2023-04-27T03:15:16;101485.97;;;3.40;100.00
55010;BME280;40903;51.638;7.528;2023-04-27T03:17:42;101490.38;;;3.35;100.00
55010;BME280;40903;51.638;7.528;2023-04-27T03:20:07;101476.97;;;3.28;100.00
55010;BME280;40903;51.638;7.528;2023-04-27T03:22:34;101477.88;;;3.22;100.00
55010;BME280;40903;51.638;7.528;2023-04-27T03:25:00;101481.03;;;3.19;100.00
55010;BME280;40903;51.638;7.528;2023-04-27T03:27:25;101479.00;;;3.15;100.00
55010;BME280;40903;51.638;7.528;2023-04-27T03:29:50;101468.09;;;3.10;100.00
55010;BME280;40903;51.638;7.528;2023-04-27T03:32:17;101469.56;;;3.06;100.00
55010;BME280;40903;51.638;7.528;2023-04-27T03:34:42;101469.19;;;3.02;100.00
55010;BME280;40903;51.638;7.528;2023-04-27T03:37:07;101472.56;;;2.98;100.00
55010;BME280;40903;51.638;7.528;2023-04-27T03:39:33;101467.00;;;2.93;100.00
55010;BME280;40903;51.638;7.528;2023-04-27T03:41:58;101462.06;;;2.90;100.00
55010;BME280;40903;51.638;7.528;2023-04-27T03:44:23;101469.16;;;2.84;100.00
55010;BME280;40903;51.638;7.528;2023-04-27T03:46:48;101474.78;;;2.83;100.00
55010;BME280;40903;51.638;7.528;2023-04-27T03:49:13;101474.59;;;2.78;100.00
55010;BME280;40903;51.638;7.528;2023-04-27T03:51:39;101473.63;;;2.72;100.00
55010;BME280;40903;51.638;7.528;2023-04-27T03:54:06;101492.91;;;2.69;100.00
55010;BME280;40903;51.638;7.528;2023-04-27T03:56:31;101491.69;;;2.65;100.00
55010;BME280;40903;51.638;7.528;2023-04-27T03:58:56;101501.47;;;2.60;100.00
55010;BME280;40903;51.638;7.528;2023-04-27T04:01:22;101508.34;;;2.56;100.00
55010;BME280;40903;51.638;7.528;2023-04-27T04:03:48;101504.44;;;2.52;100.00
55010;BME280;40903;51.638;7.528;2023-04-27T04:06:15;101507.78;;;2.47;100.00
55010;BME280;40903;51.638;7.528;2023-04-27T04:08:40;101511.13;;;2.43;100.00
55010;BME280;40903;51.638;7.528;2023-04-27T04:11:05;101503.69;;;2.38;100.00
55010;BME280;40903;51.638;7.528;2023-04-27T04:13:31;101506.84;;;2.35;100.00
55010;BME280;40903;51.638;7.528;2023-04-27T04:16:00;101508.91;;;2.33;100.00
55010;BME280;40903;51.638;7.528;2023-04-27T04:18:25;101508.75;;;2.28;100.00
55010;BME280;40903;51.638;7.528;2023-04-27T04:20:50;101518.28;;;2.24;100.00
55010;BME280;40903;51.638;7.528;2023-04-27T04:23:16;101527.03;;;2.20;100.00
55010;BME280;40903;51.638;7.528;2023-04-27T04:25:41;101524.53;;;2.18;100.00
55010;BME280;40903;51.638;7.528;2023-04-27T04:28:07;101523.09;;;2.16;100.00
55010;BME280;40903;51.638;7.528;2023-04-27T04:30:32;101532.00;;;2.16;100.00
55010;BME280;40903;51.638;7.528;2023-04-27T04:32:58;101528.47;;;2.16;100.00
55010;BME280;40903;51.638;7.528;2023-04-27T04:35:23;101521.44;;;2.15;100.00
55010;BME280;40903;51.638;7.528;2023-04-27T04:37:48;101521.44;;;2.15;100.00
55010;BME280;40903;51.638;7.528;2023-04-27T04:40:14;101526.84;;;2.15;100.00
55010;BME280;40903;51.638;7.528;2023-04-27T04:42:39;101528.47;;;2.16;100.00
55010;BME280;40903;51.638;7.528;2023-04-27T04:45:05;101531.16;;;2.16;100.00
55010;BME280;40903;51.638;7.528;2023-04-27T04:47:31;101527.44;;;2.17;100.00
55010;BME280;40903;51.638;7.528;2023-04-27T04:49:56;101528.28;;;2.17;100.00
55010;BME280;40903;51.638;7.528;2023-04-27T04:52:22;101526.44;;;2.18;100.00
55010;BME280;40903;51.638;7.528;2023-04-27T04:54:50;101529.91;;;2.18;100.00
55010;BME280;40903;51.638;7.528;2023-04-27T04:57:15;101530.75;;;2.19;100.00
55010;BME280;40903;51.638;7.528;2023-04-27T04:59:40;101518.97;;;2.20;100.00
55010;BME280;40903;51.638;7.528;2023-04-27T05:02:06;101535.47;;;2.23;100.00
55010;BME280;40903;51.638;7.528;2023-04-27T05:04:31;101528.84;;;2.26;100.00
55010;BME280;40903;51.638;7.528;2023-04-27T05:06:56;101534.63;;;2.29;100.00
55010;BME280;40903;51.638;7.528;2023-04-27T05:09:24;101535.03;;;2.33;100.00
55010;BME280;40903;51.638;7.528;2023-04-27T05:11:49;101533.09;;;2.40;100.00
55010;BME280;40903;51.638;7.528;2023-04-27T05:14:14;101526.19;;;2.50;100.00
55010;BME280;40903;51.638;7.528;2023-04-27T05:16:39;101531.53;;;2.57;100.00
55010;BME280;40903;51.638;7.528;2023-04-27T05:19:05;101531.28;;;2.65;100.00
55010;BME280;40903;51.638;7.528;2023-04-27T05:21:30;101525.59;;;2.73;100.00
55010;BME280;40903;51.638;7.528;2023-04-27T05:23:55;101532.97;;;2.84;100.00
55010;BME280;40903;51.638;7.528;2023-04-27T05:26:21;101530.63;;;2.94;100.00
55010;BME280;40903;51.638;7.528;2023-04-27T05:28:46;101534.00;;;3.07;100.00
55010;BME280;40903;51.638;7.528;2023-04-27T05:31:13;101526.41;;;3.22;100.00
55010;BME280;40903;51.638;7.528;2023-04-27T05:33:38;101530.38;;;3.38;100.00
55010;BME280;40903;51.638;7.528;2023-04-27T05:36:03;101541.00;;;3.51;100.00
55010;BME280;40903;51.638;7.528;2023-04-27T05:38:29;101543.34;;;3.65;100.00
55010;BME280;40903;51.638;7.528;2023-04-27T05:40:57;101544.00;;;3.78;100.00
55010;BME280;40903;51.638;7.528;2023-04-27T05:43:23;101548.19;;;3.92;100.00
55010;BME280;40903;51.638;7.528;2023-04-27T05:45:48;101558.59;;;4.07;100.00
55010;BME280;40903;51.638;7.528;2023-04-27T05:48:13;101561.72;;;4.22;100.00
55010;BME280;40903;51.638;7.528;2023-04-27T05:50:39;101555.69;;;4.38;100.00
55010;BME280;40903;51.638;7.528;2023-04-27T05:53:04;101561.25;;;4.54;100.00
55010;BME280;40903;51.638;7.528;2023-04-27T05:55:30;101558.94;;;4.69;100.00
55010;BME280;40903;51.638;7.528;2023-04-27T05:57:55;101567.22;;;4.86;100.00
55010;BME280;40903;51.638;7.528;2023-04-27T06:00:20;101580.25;;;5.00;100.00
55010;BME280;40903;51.638;7.528;2023-04-27T06:02:46;101574.63;;;5.13;100.00
55010;BME280;40903;51.638;7.528;2023-04-27T06:05:11;101575.84;;;5.29;100.00
55010;BME280;40903;51.638;7.528;2023-04-27T06:07:37;101568.88;;;5.44;100.00
55010;BME280;40903;51.638;7.528;2023-04-27T06:10:02;101570.28;;;5.58;100.00
55010;BME280;40903;51.638;7.528;2023-04-27T06:12:27;101568.97;;;5.72;97.87
55010;BME280;40903;51.638;7.528;2023-04-27T06:14:52;101573.94;;;5.86;96.68
55010;BME280;40903;51.638;7.528;2023-04-27T06:17:18;101579.19;;;6.04;94.46
55010;BME280;40903;51.638;7.528;2023-04-27T06:19:43;101588.19;;;6.21;92.06
55010;BME280;40903;51.638;7.528;2023-04-27T06:22:09;101582.59;;;6.39;91.11
55010;BME280;40903;51.638;7.528;2023-04-27T06:24:35;101582.06;;;6.54;88.98
55010;BME280;40903;51.638;7.528;2023-04-27T06:27:01;101582.94;;;6.71;87.75
55010;BME280;40903;51.638;7.528;2023-04-27T06:29:26;101589.19;;;6.88;88.35
55010;BME280;40903;51.638;7.528;2023-04-27T06:31:51;101592.16;;;7.03;85.36
55010;BME280;40903;51.638;7.528;2023-04-27T06:34:16;101588.13;;;7.22;86.24
55010;BME280;40903;51.638;7.528;2023-04-27T06:36:41;101595.44;;;7.38;84.05
55010;BME280;40903;51.638;7.528;2023-04-27T06:39:07;101590.31;;;7.58;84.07
55010;BME280;40903;51.638;7.528;2023-04-27T06:41:32;101590.78;;;7.71;80.57
55010;BME280;40903;51.638;7.528;2023-04-27T06:43:58;101596.16;;;7.87;80.55
55010;BME280;40903;51.638;7.528;2023-04-27T06:46:23;101592.50;;;7.98;77.37
55010;BME280;40903;51.638;7.528;2023-04-27T06:48:48;101591.00;;;8.07;75.91
55010;BME280;40903;51.638;7.528;2023-04-27T06:51:13;101584.22;;;8.26;76.07
55010;BME280;40903;51.638;7.528;2023-04-27T06:53:39;101588.22;;;8.45;74.97
55010;BME280;40903;51.638;7.528;2023-04-27T06:56:05;101588.09;;;8.57;71.22
55010;BME280;40903;51.638;7.528;2023-04-27T06:58:30;101582.72;;;8.62;70.00
55010;BME280;40903;51.638;7.528;2023-04-27T07:00:55;101588.03;;;8.78;69.73
55010;BME280;40903;51.638;7.528;2023-04-27T07:03:21;101581.38;;;8.91;68.31
55010;BME280;40903;51.638;7.528;2023-04-27T07:05:46;101579.03;;;9.04;67.30
55010;BME280;40903;51.638;7.528;2023-04-27T07:08:11;101579.66;;;9.11;65.47
55010;BME280;40903;51.638;7.528;2023-04-27T07:10:37;101572.91;;;9.19;64.94
55010;BME280;40903;51.638;7.528;2023-04-27T07:13:02;101574.94;;;9.38;65.42
55010;BME280;40903;51.638;7.528;2023-04-27T07:15:27;101569.91;;;9.57;66.55
55010;BME280;40903;51.638;7.528;2023-04-27T07:17:54;101572.75;;;9.76;64.61
55010;BME280;40903;51.638;7.528;2023-04-27T07:20:19;101575.25;;;9.88;63.22
55010;BME280;40903;51.638;7.528;2023-04-27T07:22:45;101572.84;;;9.96;61.85
55010;BME280;40903;51.638;7.528;2023-04-27T07:25:10;101580.19;;;9.91;59.25
55010;BME280;40903;51.638;7.528;2023-04-27T07:27:35;101573.19;;;10.05;60.54
55010;BME280;40903;51.638;7.528;2023-04-27T07:30:01;101566.72;;;10.21;62.44
55010;BME280;40903;51.638;7.528;2023-04-27T07:32:26;101573.25;;;10.25;59.25
55010;BME280;40903;51.638;7.528;2023-04-27T07:34:54;101576.56;;;10.32;57.10
55010;BME280;40903;51.638;7.528;2023-04-27T07:37:19;101565.47;;;10.53;59.67
55010;BME280;40903;51.638;7.528;2023-04-27T07:39:44;101570.94;;;10.68;58.09
55010;BME280;40903;51.638;7.528;2023-04-27T07:42:11;101576.69;;;10.82;55.00
55010;BME280;40903;51.638;7.528;2023-04-27T07:44:36;101585.16;;;10.90;53.20
55010;BME280;40903;51.638;7.528;2023-04-27T07:47:01;101581.34;;;10.91;51.83
55010;BME280;40903;51.638;7.528;2023-04-27T07:49:28;101578.88;;;10.90;53.97
55010;BME280;40903;51.638;7.528;2023-04-27T07:51:54;101575.34;;;11.14;56.33
55010;BME280;40903;51.638;7.528;2023-04-27T07:54:20;101579.16;;;11.18;51.24
55010;BME280;40903;51.638;7.528;2023-04-27T07:56:45;101580.53;;;11.26;51.53
55010;BME280;40903;51.638;7.528;2023-04-27T07:59:10;101577.50;;;11.37;52.09
55010;BME280;40903;51.638;7.528;2023-04-27T08:01:36;101578.88;;;11.45;50.89
55010;BME280;40903;51.638;7.528;2023-04-27T08:04:01;101576.41;;;11.53;50.78
55010;BME280;40903;51.638;7.528;2023-04-27T08:06:26;101577.47;;;11.87;50.82
55010;BME280;40903;51.638;7.528;2023-04-27T08:08:52;101580.41;;;12.00;49.40
55010;BME280;40903;51.638;7.528;2023-04-27T08:11:20;101589.03;;;12.32;49.61
55010;BME280;40903;51.638;7.528;2023-04-27T08:13:45;101585.16;;;12.43;48.04
55010;BME280;40903;51.638;7.528;2023-04-27T08:16:10;101592.50;;;12.53;45.55
55010;BME280;40903;51.638;7.528;2023-04-27T08:18:35;101602.25;;;12.69;44.55
55010;BME280;40903;51.638;7.528;2023-04-27T08:21:01;101594.22;;;12.87;44.40
55010;BME280;40903;51.638;7.528;2023-04-27T08:23:26;101595.28;;;12.91;44.57
55010;BME280;40903;51.638;7.528;2023-04-27T08:25:56;101592.19;;;13.08;42.93
55010;BME280;40903;51.638;7.528;2023-04-27T08:28:22;101588.09;;;13.34;45.98
55010;BME280;40903;51.638;7.528;2023-04-27T08:30:47;101597.28;;;13.53;44.57
55010;BME280;40903;51.638;7.528;2023-04-27T08:33:12;101589.69;;;13.68;44.46
55010;BME280;40903;51.638;7.528;2023-04-27T08:35:38;101593.13;;;13.55;41.66
55010;BME280;40903;51.638;7.528;2023-04-27T08:38:03;101594.59;;;13.71;42.28
55010;BME280;40903;51.638;7.528;2023-04-27T08:40:28;101597.00;;;13.77;39.55
55010;BME280;40903;51.638;7.528;2023-04-27T08:42:57;101588.19;;;14.04;41.13
55010;BME280;40903;51.638;7.528;2023-04-27T08:45:23;101596.03;;;13.92;39.64
55010;BME280;40903;51.638;7.528;2023-04-27T08:47:48;101594.41;;;13.91;41.38
55010;BME280;40903;51.638;7.528;2023-04-27T08:50:14;101583.09;;;13.97;40.18
55010;BME280;40903;51.638;7.528;2023-04-27T08:52:42;101592.47;;;13.91;37.65
55010;BME280;40903;51.638;7.528;2023-04-27T08:55:07;101597.41;;;13.66;37.90
55010;BME280;40903;51.638;7.528;2023-04-27T08:57:33;101589.69;;;13.68;39.10
55010;BME280;40903;51.638;7.528;2023-04-27T08:59:58;101592.69;;;13.72;37.71
55010;BME280;40903;51.638;7.528;2023-04-27T09:02:35;101591.06;;;13.94;38.11
55010;BME280;40903;51.638;7.528;2023-04-27T09:05:01;101597.72;;;13.88;38.82
55010;BME280;40903;51.638;7.528;2023-04-27T09:07:26;101594.41;;;14.14;38.38
55010;BME280;40903;51.638;7.528;2023-04-27T09:10:00;101587.81;;;14.39;39.29
55010;BME280;40903;51.638;7.528;2023-04-27T09:12:25;101597.84;;;14.48;37.73
55010;BME280;40903;51.638;7.528;2023-04-27T09:17:25;101593.19;;;14.86;34.95
55010;BME280;40903;51.638;7.528;2023-04-27T09:19:51;101588.44;;;14.91;38.92
55010;BME280;40903;51.638;7.528;2023-04-27T09:22:17;101587.09;;;14.89;36.13
55010;BME280;40903;51.638;7.528;2023-04-27T09:24:51;101591.25;;;14.86;35.80
55010;BME280;40903;51.638;7.528;2023-04-27T09:27:20;101582.34;;;14.94;35.92
55010;BME280;40903;51.638;7.528;2023-04-27T09:29:45;101593.38;;;15.08;34.19
55010;BME280;40903;51.638;7.528;2023-04-27T09:32:17;101582.31;;;15.31;35.71
55010;BME280;40903;51.638;7.528;2023-04-27T09:34:44;101587.22;;;15.16;34.67
55010;BME280;40903;51.638;7.528;2023-04-27T09:37:10;101568.69;;;15.40;35.96
55010;BME280;40903;51.638;7.528;2023-04-27T09:39:35;101565.72;;;15.68;35.88
55010;BME280;40903;51.638;7.528;2023-04-27T09:42:01;101558.41;;;15.90;34.17
55010;BME280;40903;51.638;7.528;2023-04-27T09:44:26;101551.56;;;16.15;37.64
55010;BME280;40903;51.638;7.528;2023-04-27T09:46:52;101553.63;;;16.23;34.13
55010;BME280;40903;51.638;7.528;2023-04-27T09:49:19;101551.16;;;16.48;35.25
55010;BME280;40903;51.638;7.528;2023-04-27T09:51:45;101548.69;;;16.60;33.45
55010;BME280;40903;51.638;7.528;2023-04-27T09:54:10;101549.22;;;16.49;34.75
55010;BME280;40903;51.638;7.528;2023-04-27T10:02:05;101553.50;;;16.55;32.86
55010;BME280;40903;51.638;7.528;2023-04-27T10:07:15;101547.97;;;16.55;32.45
55010;BME280;40903;51.638;7.528;2023-04-27T10:09:47;101535.94;;;16.51;34.70
55010;BME280;40903;51.638;7.528;2023-04-27T10:12:14;101541.44;;;16.51;33.61
55010;BME280;40903;51.638;7.528;2023-04-27T10:14:49;101551.63;;;16.64;32.46
55010;BME280;40903;51.638;7.528;2023-04-27T10:17:15;101538.53;;;16.83;31.21
55010;BME280;40903;51.638;7.528;2023-04-27T10:19:51;101539.78;;;16.99;32.27
55010;BME280;40903;51.638;7.528;2023-04-27T10:22:17;101532.31;;;17.21;33.31
55010;BME280;40903;51.638;7.528;2023-04-27T10:24:42;101535.56;;;17.23;31.61
55010;BME280;40903;51.638;7.528;2023-04-27T10:27:14;101530.84;;;17.37;31.41
55010;BME280;40903;51.638;7.528;2023-04-27T10:29:41;101542.59;;;17.07;30.00
55010;BME280;40903;51.638;7.528;2023-04-27T10:32:17;101535.91;;;17.00;30.78
55010;BME280;40903;51.638;7.528;2023-04-27T10:34:43;101520.97;;;17.01;32.03
55010;BME280;40903;51.638;7.528;2023-04-27T10:37:11;101518.88;;;16.98;30.76
55010;BME280;40903;51.638;7.528;2023-04-27T10:39:41;101513.16;;;16.94;31.05
55010;BME280;40903;51.638;7.528;2023-04-27T10:42:07;101521.66;;;16.62;30.01
55010;BME280;40903;51.638;7.528;2023-04-27T10:44:33;101521.75;;;16.57;30.41
55010;BME280;40903;51.638;7.528;2023-04-27T10:47:00;101516.78;;;16.46;30.63
55010;BME280;40903;51.638;7.528;2023-04-27T10:49:29;101514.75;;;16.51;30.92
55010;BME280;40903;51.638;7.528;2023-04-27T10:51:56;101516.50;;;16.69;33.16
55010;BME280;40903;51.638;7.528;2023-04-27T10:54:24;101518.50;;;16.55;30.82
55010;BME280;40903;51.638;7.528;2023-04-27T10:56:49;101506.31;;;16.70;30.07
55010;BME280;40903;51.638;7.528;2023-04-27T10:59:16;101510.00;;;16.87;28.77
55010;BME280;40903;51.638;7.528;2023-04-27T11:01:41;101511.41;;;16.98;28.54
55010;BME280;40903;51.638;7.528;2023-04-27T11:04:06;101501.69;;;17.01;29.28
55010;BME280;40903;51.638;7.528;2023-04-27T11:06:40;101494.66;;;17.17;30.49
55010;BME280;40903;51.638;7.528;2023-04-27T11:09:05;101500.44;;;17.07;30.25
55010;BME280;40903;51.638;7.528;2023-04-27T11:11:31;101495.53;;;16.82;29.03
55010;BME280;40903;51.638;7.528;2023-04-27T11:13:56;101491.09;;;16.72;28.11
55010;BME280;40903;51.638;7.528;2023-04-27T11:16:22;101488.47;;;16.89;30.13
55010;BME280;40903;51.638;7.528;2023-04-27T11:18:47;101499.75;;;17.01;30.53
55010;BME280;40903;51.638;7.528;2023-04-27T11:21:13;101491.09;;;17.16;30.82
55010;BME280;40903;51.638;7.528;2023-04-27T11:23:39;101491.41;;;17.15;27.86
55010;BME280;40903;51.638;7.528;2023-04-27T11:26:15;101494.72;;;17.25;28.18
55010;BME280;40903;51.638;7.528;2023-04-27T11:28:44;101494.91;;;17.29;30.28
55010;BME280;40903;51.638;7.528;2023-04-27T11:31:20;101490.69;;;17.53;29.71
55010;BME280;40903;51.638;7.528;2023-04-27T11:33:46;101503.94;;;17.43;28.91
55010;BME280;40903;51.638;7.528;2023-04-27T11:36:15;101495.03;;;17.46;29.01
55010;BME280;40903;51.638;7.528;2023-04-27T11:38:41;101503.78;;;17.26;27.84
55010;BME280;40903;51.638;7.528;2023-04-27T11:41:06;101501.16;;;17.21;28.77
55010;BME280;40903;51.638;7.528;2023-04-27T11:43:32;101504.31;;;17.06;28.51
55010;BME280;40903;51.638;7.528;2023-04-27T11:46:00;101497.41;;;17.17;28.08
55010;BME280;40903;51.638;7.528;2023-04-27T11:48:26;101495.53;;;17.48;27.31
55010;BME280;40903;51.638;7.528;2023-04-27T11:50:51;101503.56;;;17.36;27.25
55010;BME280;40903;51.638;7.528;2023-04-27T11:53:27;101491.44;;;17.45;28.89
55010;BME280;40903;51.638;7.528;2023-04-27T11:55:52;101501.97;;;17.74;27.20
55010;BME280;40903;51.638;7.528;2023-04-27T11:58:18;101500.84;;;17.75;26.49
55010;BME280;40903;51.638;7.528;2023-04-27T12:00:44;101484.22;;;17.58;27.31
55010;BME280;40903;51.638;7.528;2023-04-27T12:03:11;101493.09;;;17.55;27.32
55010;BME280;40903;51.638;7.528;2023-04-27T12:05:45;101492.69;;;17.70;27.74
55010;BME280;40903;51.638;7.528;2023-04-27T12:08:11;101498.94;;;18.00;26.68
55010;BME280;40903;51.638;7.528;2023-04-27T12:10:36;101485.34;;;18.04;27.08
55010;BME280;40903;51.638;7.528;2023-04-27T12:13:02;101481.28;;;18.10;28.40
55010;BME280;40903;51.638;7.528;2023-04-27T12:15:27;101488.25;;;17.99;27.05
55010;BME280;40903;51.638;7.528;2023-04-27T12:17:52;101472.38;;;18.13;26.85
55010;BME280;40903;51.638;7.528;2023-04-27T12:20:17;101474.31;;;18.12;25.11
55010;BME280;40903;51.638;7.528;2023-04-27T12:22:42;101478.38;;;18.06;27.09
55010;BME280;40903;51.638;7.528;2023-04-27T12:25:08;101473.53;;;17.65;25.94
55010;BME280;40903;51.638;7.528;2023-04-27T12:27:33;101471.31;;;17.83;26.96
55010;BME280;40903;51.638;7.528;2023-04-27T12:29:59;101471.75;;;17.69;27.85
55010;BME280;40903;51.638;7.528;2023-04-27T12:32:24;101468.06;;;17.82;26.76
55010;BME280;40903;51.638;7.528;2023-04-27T12:34:49;101466.50;;;18.06;26.62
55010;BME280;40903;51.638;7.528;2023-04-27T12:37:15;101474.69;;;18.28;27.42
55010;BME280;40903;51.638;7.528;2023-04-27T12:39:40;101460.72;;;18.58;26.43
55010;BME280;40903;51.638;7.528;2023-04-27T12:42:05;101466.25;;;18.67;25.93
55010;BME280;40903;51.638;7.528;2023-04-27T12:44:30;101456.81;;;18.85;28.72
55010;BME280;40903;51.638;7.528;2023-04-27T12:46:56;101465.09;;;18.93;25.42
55010;BME280;40903;51.638;7.528;2023-04-27T12:49:21;101469.00;;;18.84;24.75
55010;BME280;40903;51.638;7.528;2023-04-27T12:51:46;101461.72;;;18.71;24.80
55010;BME280;40903;51.638;7.528;2023-04-27T12:54:15;101461.22;;;18.52;25.85
55010;BME280;40903;51.638;7.528;2023-04-27T12:56:40;101457.16;;;18.66;27.64